createdAt,value
2023-03-26T00:01:15.435Z,2.08
2023-03-26T00:03:45.002Z,1.80
2023-03-26T00:06:14.401Z,1.73
2023-03-26T00:08:42.581Z,2.28
2023-03-26T00:11:11.445Z,2.17
2023-03-26T00:13:38.177Z,1.52
2023-03-26T00:16:05.340Z,1.75
2023-03-26T00:18:35.160Z,2.05
2023-03-26T00:21:05.180Z,1.65
2023-03-26T00:23:35.060Z,1.90
2023-03-26T00:26:10.407Z,2.10
2023-03-26T00:28:38.260Z,2.03
2023-03-26T00:31:06.226Z,1.98
2023-03-26T00:33:38.092Z,2.03
2023-03-26T00:36:09.741Z,1.60
2023-03-26T00:38:38.799Z,1.85
2023-03-26T00:41:08.216Z,2.08
2023-03-26T00:43:36.518Z,1.95
2023-03-26T00:46:03.595Z,2.30
2023-03-26T00:48:42.272Z,1.77
2023-03-26T00:51:15.224Z,1.55
2023-03-26T00:53:43.390Z,1.98
2023-03-26T00:56:10.207Z,1.95
2023-03-26T00:58:37.643Z,1.60
2023-03-26T01:01:27.517Z,2.53
2023-03-26T01:06:35.893Z,1.40
2023-03-26T01:09:12.614Z,1.67
2023-03-26T01:11:39.700Z,1.88
2023-03-26T01:14:09.061Z,2.15
2023-03-26T01:16:41.589Z,1.73
2023-03-26T01:19:12.939Z,2.30
2023-03-26T01:21:40.468Z,1.90
2023-03-26T01:24:09.298Z,1.67
2023-03-26T01:26:37.659Z,1.65
2023-03-26T01:29:08.305Z,2.00
2023-03-26T01:31:41.494Z,1.95
2023-03-26T01:34:14.101Z,1.65
2023-03-26T01:36:53.073Z,1.98
2023-03-26T01:39:30.787Z,2.17
2023-03-26T01:41:58.952Z,1.90
2023-03-26T01:44:28.691Z,2.95
2023-03-26T01:46:56.585Z,1.80
2023-03-26T01:49:23.719Z,1.80
2023-03-26T01:51:51.453Z,1.98
2023-03-26T01:54:21.933Z,1.90
2023-03-26T01:57:19.020Z,1.92
2023-03-26T02:00:11.454Z,2.03
2023-03-26T02:03:04.927Z,2.10
2023-03-26T02:05:37.811Z,1.98
2023-03-26T02:08:37.655Z,2.50
2023-03-26T02:11:16.622Z,1.98
2023-03-26T02:13:45.723Z,2.10
2023-03-26T02:16:16.331Z,1.80
2023-03-26T02:18:45.555Z,2.08
2023-03-26T02:21:19.921Z,1.95
2023-03-26T02:23:48.779Z,2.13
2023-03-26T02:26:18.493Z,2.38
2023-03-26T02:28:45.640Z,2.33
2023-03-26T02:31:13.793Z,2.70
2023-03-26T02:33:40.754Z,2.33
2023-03-26T02:36:08.580Z,1.98
2023-03-26T02:38:35.665Z,2.50
2023-03-26T02:41:02.978Z,2.10
2023-03-26T02:43:29.729Z,2.25
2023-03-26T02:45:57.065Z,2.13
2023-03-26T02:48:24.009Z,2.17
2023-03-26T02:50:54.465Z,1.80
2023-03-26T02:53:21.734Z,2.40
2023-03-26T02:55:48.336Z,1.88
2023-03-26T02:58:17.716Z,2.05
2023-03-26T03:00:47.034Z,2.75
2023-03-26T03:03:17.085Z,2.60
2023-03-26T03:05:43.776Z,2.33
2023-03-26T03:08:10.441Z,2.15
2023-03-26T03:10:37.766Z,2.35
2023-03-26T03:13:07.599Z,2.42
2023-03-26T03:15:34.925Z,2.78
2023-03-26T03:18:02.112Z,1.85
2023-03-26T03:20:30.282Z,2.35
2023-03-26T03:22:56.907Z,1.88
2023-03-26T03:25:23.503Z,2.28
2023-03-26T03:27:50.392Z,2.47
2023-03-26T03:30:17.108Z,2.08
2023-03-26T03:32:43.745Z,2.80
2023-03-26T03:35:10.831Z,2.25
2023-03-26T03:37:37.479Z,2.47
2023-03-26T03:40:08.096Z,2.03
2023-03-26T03:42:34.779Z,2.65
2023-03-26T03:45:02.058Z,2.65
2023-03-26T03:47:28.862Z,1.70
2023-03-26T03:49:56.917Z,1.88
2023-03-26T03:52:23.517Z,1.90
2023-03-26T03:54:51.001Z,2.05
2023-03-26T03:57:18.798Z,2.60
2023-03-26T03:59:47.455Z,2.25
2023-03-26T04:02:21.216Z,1.58
2023-03-26T04:04:50.090Z,2.28
2023-03-26T04:07:16.768Z,2.17
2023-03-26T04:09:43.398Z,2.10
2023-03-26T04:12:10.070Z,2.28
2023-03-26T04:14:36.736Z,1.90
2023-03-26T04:17:05.253Z,2.22
2023-03-26T04:19:31.922Z,2.13
2023-03-26T04:22:02.547Z,2.55
2023-03-26T04:24:30.006Z,2.35
2023-03-26T04:27:01.268Z,2.25
2023-03-26T04:29:30.596Z,1.90
2023-03-26T04:32:06.439Z,2.35
2023-03-26T04:34:34.181Z,2.55
2023-03-26T04:37:04.972Z,2.28
2023-03-26T04:39:34.057Z,2.17
2023-03-26T04:42:00.731Z,2.60
2023-03-26T04:44:30.196Z,2.60
2023-03-26T04:46:56.893Z,3.05
2023-03-26T04:49:23.603Z,2.70
2023-03-26T04:51:50.651Z,2.75
2023-03-26T04:54:20.066Z,2.05
2023-03-26T04:56:58.585Z,2.00
2023-03-26T04:59:30.380Z,2.28
2023-03-26T05:01:59.029Z,2.40
2023-03-26T05:04:26.677Z,2.17
2023-03-26T05:06:53.845Z,2.13
2023-03-26T05:09:20.567Z,2.33
2023-03-26T05:11:48.174Z,2.33
2023-03-26T05:14:14.785Z,2.53
2023-03-26T05:16:42.023Z,2.25
2023-03-26T05:19:08.883Z,2.63
2023-03-26T05:21:35.766Z,2.90
2023-03-26T05:24:02.670Z,2.55
2023-03-26T05:26:29.316Z,2.45
2023-03-26T05:28:57.656Z,2.42
2023-03-26T05:31:26.986Z,2.10
2023-03-26T05:33:54.915Z,2.67
2023-03-26T05:36:22.424Z,2.05
2023-03-26T05:38:49.938Z,2.55
2023-03-26T05:41:17.488Z,2.00
2023-03-26T05:43:48.103Z,1.90
2023-03-26T05:46:15.701Z,2.58
2023-03-26T05:48:42.471Z,2.78
2023-03-26T05:51:09.745Z,2.35
2023-03-26T05:53:36.562Z,2.38
2023-03-26T05:56:04.198Z,2.47
2023-03-26T05:58:33.354Z,2.58
2023-03-26T06:01:05.340Z,2.00
2023-03-26T06:03:33.503Z,3.05
2023-03-26T06:06:00.327Z,2.40
2023-03-26T06:08:27.196Z,2.47
2023-03-26T06:11:01.363Z,2.55
2023-03-26T06:13:28.135Z,3.25
2023-03-26T06:15:54.961Z,3.50
2023-03-26T06:18:23.009Z,2.47
2023-03-26T06:20:49.824Z,2.75
2023-03-26T06:23:16.766Z,2.20
2023-03-26T06:25:47.758Z,2.72
2023-03-26T06:28:15.391Z,2.70
2023-03-26T06:30:42.475Z,2.53
2023-03-26T06:33:09.701Z,2.70
2023-03-26T06:35:36.798Z,2.25
2023-03-26T06:38:04.049Z,2.13
2023-03-26T06:40:31.146Z,2.00
2023-03-26T06:43:07.754Z,2.33
2023-03-26T06:45:37.845Z,2.63
2023-03-26T06:48:05.296Z,3.30
2023-03-26T06:50:32.909Z,2.55
2023-03-26T06:53:00.005Z,1.60
2023-03-26T06:55:27.242Z,2.50
2023-03-26T06:57:56.833Z,2.60
2023-03-26T07:00:23.770Z,2.08
2023-03-26T07:02:50.455Z,2.45
2023-03-26T07:05:17.351Z,2.85
2023-03-26T07:07:46.312Z,2.33
2023-03-26T07:10:13.804Z,2.55
2023-03-26T07:12:42.244Z,2.40
2023-03-26T07:15:10.101Z,2.42
2023-03-26T07:17:37.172Z,2.15
2023-03-26T07:20:05.518Z,2.00
2023-03-26T07:22:32.398Z,2.20
2023-03-26T07:24:59.306Z,2.60
2023-03-26T07:27:44.313Z,2.20
2023-03-26T07:30:13.805Z,2.45
2023-03-26T07:33:15.168Z,2.47
2023-03-26T07:35:48.492Z,1.90
2023-03-26T07:38:40.756Z,3.03
2023-03-26T07:41:19.594Z,2.55
2023-03-26T07:44:09.318Z,3.33
2023-03-26T07:46:37.073Z,2.25
2023-03-26T07:49:04.649Z,2.40
2023-03-26T07:51:32.333Z,2.60
2023-03-26T07:54:00.442Z,2.67
2023-03-26T07:56:37.648Z,2.50
2023-03-26T07:59:13.148Z,3.55
2023-03-26T08:01:42.923Z,2.30
2023-03-26T08:04:27.867Z,2.28
2023-03-26T08:07:03.325Z,2.42
2023-03-26T08:09:29.912Z,2.17
2023-03-26T08:12:43.909Z,2.78
2023-03-26T08:15:32.580Z,2.95
2023-03-26T08:18:27.126Z,1.92
2023-03-26T08:23:25.070Z,2.20
2023-03-26T08:26:02.464Z,2.97
2023-03-26T08:28:39.734Z,3.28
2023-03-26T08:31:10.295Z,2.75
2023-03-26T08:33:38.383Z,2.70
2023-03-26T08:36:05.814Z,2.90
2023-03-26T08:38:32.430Z,2.28
2023-03-26T08:41:18.999Z,2.20
2023-03-26T08:44:04.597Z,2.72
2023-03-26T08:47:01.484Z,2.92
2023-03-26T08:49:40.393Z,2.80
2023-03-26T08:52:37.058Z,3.15
2023-03-26T08:55:22.032Z,2.72
2023-03-26T08:57:57.767Z,2.40
2023-03-26T09:00:59.100Z,2.50
2023-03-26T09:03:47.068Z,2.65
2023-03-26T09:06:26.226Z,2.95
2023-03-26T09:08:59.126Z,2.30
2023-03-26T09:11:50.079Z,2.72
2023-03-26T09:14:56.708Z,2.85
2023-03-26T09:17:49.651Z,2.45
2023-03-26T09:20:43.372Z,2.10
2023-03-26T09:23:18.885Z,2.40
2023-03-26T09:26:04.203Z,2.70
2023-03-26T09:28:43.593Z,3.33
2023-03-26T09:31:20.295Z,2.78
2023-03-26T09:34:17.909Z,2.75
2023-03-26T09:36:57.281Z,3.00
2023-03-26T09:39:35.461Z,2.22
2023-03-26T09:42:22.970Z,2.60
2023-03-26T09:44:49.563Z,2.78
2023-03-26T09:47:21.589Z,3.47
2023-03-26T09:50:29.721Z,2.85
2023-03-26T09:53:22.841Z,2.33
2023-03-26T09:56:04.712Z,3.08
2023-03-26T09:58:46.069Z,3.20
2023-03-26T10:01:35.659Z,2.90
2023-03-26T10:04:28.834Z,3.17
2023-03-26T10:07:05.975Z,3.40
2023-03-26T10:09:45.243Z,3.17
2023-03-26T10:12:37.239Z,3.00
2023-03-26T10:15:25.371Z,3.75
2023-03-26T10:18:00.503Z,3.13
2023-03-26T10:20:49.911Z,3.22
2023-03-26T10:23:41.300Z,4.30
2023-03-26T10:26:27.902Z,2.78
2023-03-26T10:29:09.064Z,2.92
2023-03-26T10:31:52.614Z,2.70
2023-03-26T10:34:29.683Z,2.95
2023-03-26T10:37:25.014Z,3.15
2023-03-26T10:39:57.662Z,2.88
2023-03-26T10:42:33.842Z,2.92
2023-03-26T10:45:29.574Z,2.67
2023-03-26T10:48:10.690Z,3.10
2023-03-26T10:50:53.878Z,3.15
2023-03-26T10:53:36.396Z,3.20
2023-03-26T10:56:35.036Z,2.60
2023-03-26T10:59:08.198Z,2.60
2023-03-26T11:01:43.731Z,3.40
2023-03-26T11:04:35.585Z,2.25
2023-03-26T11:07:51.687Z,3.13
2023-03-26T11:10:39.850Z,2.55
2023-03-26T11:13:15.185Z,2.75
2023-03-26T11:16:03.290Z,2.22
2023-03-26T11:18:50.321Z,2.17
2023-03-26T11:21:42.813Z,2.15
2023-03-26T11:24:31.386Z,2.22
2023-03-26T11:27:15.285Z,2.20
2023-03-26T11:30:20.152Z,2.08
2023-03-26T11:32:51.721Z,2.33
2023-03-26T11:35:39.723Z,1.75
2023-03-26T11:38:25.482Z,2.15
2023-03-26T11:40:57.308Z,1.90
2023-03-26T11:43:30.590Z,1.60
2023-03-26T11:45:57.689Z,1.70
2023-03-26T11:48:31.968Z,1.55
2023-03-26T11:51:07.383Z,1.50
2023-03-26T11:53:39.561Z,1.55
2023-03-26T11:56:27.754Z,1.73
2023-03-26T11:58:55.544Z,1.40
2023-03-26T12:01:32.585Z,1.63
2023-03-26T12:04:13.567Z,1.85
2023-03-26T12:06:56.550Z,1.20
2023-03-26T12:09:24.209Z,1.75
2023-03-26T12:11:54.590Z,1.85
2023-03-26T12:14:25.217Z,1.60
2023-03-26T12:16:59.521Z,1.73
2023-03-26T12:19:28.888Z,1.60
2023-03-26T12:21:56.038Z,1.45
2023-03-26T12:24:29.885Z,1.42
2023-03-26T12:29:24.453Z,1.38
2023-03-26T12:32:12.576Z,1.75
2023-03-26T12:34:40.147Z,1.70
2023-03-26T12:37:27.918Z,1.60
2023-03-26T12:40:24.510Z,2.08
2023-03-26T12:44:53.671Z,1.88
2023-03-26T12:45:44.310Z,1.70
2023-03-26T12:48:15.441Z,1.73
2023-03-26T12:50:51.148Z,2.63
2023-03-26T12:53:32.719Z,1.70
2023-03-26T12:56:12.299Z,2.03
2023-03-26T12:59:03.852Z,2.75
2023-03-26T13:01:45.468Z,1.95
2023-03-26T13:04:34.041Z,1.67
2023-03-26T13:07:08.171Z,2.15
2023-03-26T13:09:37.753Z,1.90
2023-03-26T13:12:30.274Z,1.83
2023-03-26T13:15:20.039Z,1.67
2023-03-26T13:18:07.334Z,2.25
2023-03-26T13:21:02.636Z,1.65
2023-03-26T13:24:08.426Z,1.83
2023-03-26T13:26:54.639Z,2.55
2023-03-26T13:29:46.696Z,1.67
2023-03-26T13:32:37.001Z,2.28
2023-03-26T13:35:21.707Z,1.85
2023-03-26T13:37:55.444Z,1.70
2023-03-26T13:40:51.460Z,1.67
2023-03-26T13:43:59.669Z,1.77
2023-03-26T13:46:30.421Z,1.38
2023-03-26T13:49:12.780Z,1.90
2023-03-26T13:51:50.853Z,2.25
2023-03-26T13:54:32.523Z,1.98
2023-03-26T13:57:24.052Z,1.75
2023-03-26T13:59:56.165Z,1.70
2023-03-26T14:02:42.030Z,1.90
2023-03-26T14:05:42.519Z,1.50
2023-03-26T14:08:42.320Z,2.08
2023-03-26T14:11:14.440Z,1.40
2023-03-26T14:14:00.259Z,1.52
2023-03-26T14:16:34.581Z,1.30
2023-03-26T14:19:09.515Z,1.23
2023-03-26T14:21:46.389Z,1.20
2023-03-26T14:24:42.276Z,0.82
2023-03-26T14:27:32.331Z,1.20
2023-03-26T14:30:20.582Z,1.08
2023-03-26T14:33:13.764Z,0.88
2023-03-26T14:35:49.845Z,0.80
2023-03-26T14:38:33.497Z,1.40
2023-03-26T14:41:23.033Z,1.23
2023-03-26T14:44:20.955Z,0.82
2023-03-26T14:47:07.391Z,1.05
2023-03-26T14:49:53.455Z,1.15
2023-03-26T14:52:29.754Z,1.02
2023-03-26T14:54:59.207Z,1.40
2023-03-26T14:57:44.478Z,1.35
2023-03-26T15:00:48.672Z,1.50
2023-03-26T15:03:39.171Z,1.50
2023-03-26T15:06:27.168Z,1.60
2023-03-26T15:09:12.141Z,1.92
2023-03-26T15:12:13.660Z,2.08
2023-03-26T15:14:59.399Z,1.85
2023-03-26T15:18:06.170Z,1.90
2023-03-26T15:20:44.742Z,2.47
2023-03-26T15:23:31.421Z,2.15
2023-03-26T15:26:31.467Z,2.70
2023-03-26T15:29:21.505Z,2.22
2023-03-26T15:32:12.313Z,2.08
2023-03-26T15:34:51.249Z,2.20
2023-03-26T15:37:34.312Z,2.67
2023-03-26T15:40:22.094Z,2.38
2023-03-26T15:43:11.707Z,2.22
2023-03-26T15:45:44.329Z,2.15
2023-03-26T15:48:11.722Z,2.25
2023-03-26T15:50:58.470Z,2.30
2023-03-26T15:54:09.073Z,1.50
2023-03-26T15:56:57.901Z,1.20
2023-03-26T16:00:01.197Z,1.10
2023-03-26T16:02:39.750Z,1.08
2023-03-26T16:05:19.424Z,1.45
2023-03-26T16:08:14.613Z,1.27
2023-03-26T16:11:04.187Z,1.27
2023-03-26T16:13:34.179Z,1.38
2023-03-26T16:16:03.798Z,1.27
2023-03-26T16:18:40.941Z,1.15
2023-03-26T16:21:34.316Z,1.40
2023-03-26T16:24:07.262Z,1.20
2023-03-26T16:27:05.290Z,1.67
2023-03-26T16:29:34.180Z,1.45
2023-03-26T16:32:10.082Z,1.30
2023-03-26T16:34:57.265Z,1.80
2023-03-26T16:37:36.707Z,1.60
2023-03-26T16:40:20.259Z,1.65
2023-03-26T16:43:24.244Z,1.30
2023-03-26T16:46:02.991Z,1.60
2023-03-26T16:48:38.878Z,1.88
2023-03-26T16:51:27.008Z,2.13
2023-03-26T16:54:12.896Z,1.55
2023-03-26T16:56:59.401Z,1.60
2023-03-26T16:59:39.028Z,1.80
2023-03-26T17:02:46.385Z,1.70
2023-03-26T17:05:44.209Z,1.73
2023-03-26T17:08:19.110Z,1.45
2023-03-26T17:11:23.893Z,1.77
2023-03-26T17:14:08.076Z,1.52
2023-03-26T17:19:22.403Z,1.58
2023-03-26T17:21:58.284Z,1.77
2023-03-26T17:24:36.889Z,1.52
2023-03-26T17:27:11.850Z,1.20
2023-03-26T17:30:17.734Z,1.77
2023-03-26T17:33:05.929Z,1.50
2023-03-26T17:35:46.973Z,1.50
2023-03-26T17:38:26.223Z,2.28
2023-03-26T17:40:59.971Z,1.75
2023-03-26T17:46:29.491Z,1.40
2023-03-26T17:48:59.541Z,1.30
2023-03-26T17:51:52.339Z,1.75
2023-03-26T17:54:41.069Z,1.58
2023-03-26T17:57:41.728Z,1.13
2023-03-26T18:00:34.615Z,1.30
2023-03-26T18:03:04.900Z,1.10
2023-03-26T18:05:33.713Z,1.20
2023-03-26T18:08:18.798Z,1.40
2023-03-26T18:11:08.012Z,1.13
2023-03-26T18:13:53.591Z,1.50
2023-03-26T18:16:26.059Z,1.10
2023-03-26T18:19:01.539Z,0.90
2023-03-26T18:21:39.124Z,1.00
2023-03-26T18:24:08.799Z,1.02
2023-03-26T18:26:45.262Z,1.02
2023-03-26T18:29:31.613Z,1.15
2023-03-26T18:32:22.232Z,1.08
2023-03-26T18:34:54.207Z,1.30
2023-03-26T18:37:27.245Z,1.17
2023-03-26T18:40:02.115Z,1.20
2023-03-26T18:42:31.627Z,1.00
2023-03-26T18:45:00.861Z,1.05
2023-03-26T18:47:30.438Z,1.40
2023-03-26T18:49:58.073Z,1.50
2023-03-26T18:52:28.034Z,1.33
2023-03-26T18:54:55.620Z,1.30
2023-03-26T18:57:25.888Z,1.20
2023-03-26T18:59:55.287Z,1.10
2023-03-26T19:02:22.885Z,1.35
2023-03-26T19:04:54.140Z,1.20
2023-03-26T19:07:25.651Z,1.60
2023-03-26T19:09:56.219Z,1.02
2023-03-26T19:12:32.815Z,1.25
2023-03-26T19:15:04.608Z,1.30
2023-03-26T19:17:38.414Z,1.50
2023-03-26T19:22:36.736Z,1.65
2023-03-26T19:25:04.527Z,1.35
2023-03-26T19:27:32.263Z,1.30
2023-03-26T19:29:59.262Z,1.67
2023-03-26T19:32:32.258Z,1.45
2023-03-26T19:35:01.956Z,1.23
2023-03-26T19:37:30.625Z,1.38
2023-03-26T19:40:07.071Z,1.42
2023-03-26T19:42:43.734Z,1.35
2023-03-26T19:45:22.829Z,1.45
2023-03-26T19:48:03.510Z,1.58
2023-03-26T19:50:36.437Z,1.70
2023-03-26T19:53:18.677Z,1.55
2023-03-26T19:55:58.825Z,1.15
2023-03-26T19:58:26.782Z,1.35
2023-03-26T20:00:55.695Z,1.70
2023-03-26T20:03:40.588Z,1.42
2023-03-26T20:06:11.916Z,1.52
2023-03-26T20:08:40.462Z,1.48
2023-03-26T20:11:16.455Z,1.30
2023-03-26T20:13:43.165Z,1.50
2023-03-26T20:16:39.766Z,1.40
2023-03-26T20:19:07.197Z,1.52
2023-03-26T20:21:38.061Z,1.58
2023-03-26T20:24:16.130Z,1.70
2023-03-26T20:26:43.947Z,1.48
2023-03-26T20:29:11.510Z,1.33
2023-03-26T20:31:39.673Z,1.27
2023-03-26T20:34:14.329Z,1.20
2023-03-26T20:36:40.938Z,1.30
2023-03-26T20:39:07.742Z,1.10
2023-03-26T20:41:35.848Z,1.20
2023-03-26T20:44:04.822Z,1.30
2023-03-26T20:46:32.964Z,1.15
2023-03-26T20:49:00.028Z,0.90
2023-03-26T20:51:28.257Z,1.23
2023-03-26T20:53:56.062Z,1.15
2023-03-26T20:56:23.457Z,1.23
2023-03-26T20:59:03.622Z,1.20
2023-03-26T21:01:37.764Z,1.02
2023-03-26T21:04:04.612Z,1.10
2023-03-26T21:06:31.702Z,1.33
2023-03-26T21:08:58.756Z,1.17
2023-03-26T21:12:00.332Z,0.90
2023-03-26T21:14:44.058Z,1.00
2023-03-26T21:17:17.839Z,1.10
2023-03-26T21:22:44.701Z,1.10
2023-03-26T21:25:33.515Z,1.23
2023-03-26T21:28:06.022Z,1.00
2023-03-26T21:30:34.300Z,1.05
2023-03-26T21:33:01.869Z,1.00
2023-03-26T21:35:28.881Z,1.20
2023-03-26T21:37:57.535Z,1.50
2023-03-26T21:40:24.437Z,1.27
2023-03-26T21:42:53.434Z,1.20
2023-03-26T21:45:21.634Z,1.20
2023-03-26T21:47:49.003Z,1.20
2023-03-26T21:50:20.374Z,0.95
2023-03-26T21:52:48.414Z,1.52
2023-03-26T21:55:21.000Z,1.70
2023-03-26T21:58:02.552Z,1.10
2023-03-26T22:00:43.810Z,1.10
2023-03-26T22:03:34.559Z,1.38
2023-03-26T22:06:09.242Z,1.45
2023-03-26T22:08:38.827Z,1.00
2023-03-26T22:11:07.060Z,1.10
2023-03-26T22:13:35.638Z,1.23
2023-03-26T22:16:02.863Z,1.00
2023-03-26T22:18:29.988Z,1.13
2023-03-26T22:20:58.971Z,1.05
2023-03-26T22:23:27.339Z,1.58
2023-03-26T22:25:54.097Z,1.30
2023-03-26T22:28:20.704Z,1.33
2023-03-26T22:30:47.393Z,1.42
2023-03-26T22:33:14.286Z,1.10
2023-03-26T22:35:44.700Z,1.17
2023-03-26T22:38:11.703Z,1.55
2023-03-26T22:40:38.963Z,1.10
2023-03-26T22:43:05.572Z,1.17
2023-03-26T22:45:32.501Z,1.30
2023-03-26T22:48:03.569Z,1.15
2023-03-26T22:50:31.561Z,1.27
2023-03-26T22:52:58.227Z,1.30
2023-03-26T22:55:28.468Z,1.27
2023-03-26T22:57:56.726Z,1.00
2023-03-26T23:00:23.505Z,1.20
2023-03-26T23:02:50.188Z,1.10
2023-03-26T23:05:17.595Z,1.13
2023-03-26T23:07:45.912Z,1.20
2023-03-26T23:10:13.520Z,1.13
2023-03-26T23:12:41.221Z,1.00
2023-03-26T23:15:09.517Z,1.00
2023-03-26T23:17:37.457Z,1.27
2023-03-26T23:20:12.542Z,1.10
2023-03-26T23:22:39.200Z,1.20
2023-03-26T23:25:06.690Z,1.40
2023-03-26T23:27:33.916Z,0.90
2023-03-26T23:30:01.260Z,1.30
2023-03-26T23:32:28.262Z,1.42
2023-03-26T23:34:57.904Z,1.00
2023-03-26T23:37:24.574Z,1.20
2023-03-26T23:39:52.151Z,1.27
2023-03-26T23:42:28.163Z,1.30
2023-03-26T23:44:56.538Z,1.20
2023-03-26T23:47:23.242Z,1.40
2023-03-26T23:49:50.030Z,1.23
2023-03-26T23:52:16.666Z,1.50
2023-03-26T23:54:44.473Z,1.17
2023-03-26T23:57:11.336Z,1.33
2023-03-26T23:59:38.235Z,1.20
